UHBB Airport Information

Runway Information
Runway 18 Length 9256 ft width 148 ft
Elevation 565 ft Threshold 0 ft Heading 168
Runway 36 Length 9256 ft Width 148 ft
Elevation 638 ft Threshold 0 ft Heading 348
Airport Frequencies
Type PMSV Name BLAGOVESCH Frequency 126.4 MHZ
Type TWR Name BLAGOVESCH Frequency 127.2 MHZ
Airport Navaids
Type VOR-DME Name Blagoveschensk Frequency 113600 KHZ
Type NDB Name Blagoveschensk Frequency 350 KHZ
Type NDB Name Blagoveschensk Frequency 350 KHZ
Airport Weather Information & NOTAM
ADDS - METARS form results

(0549 UTC 29 November 2021)
Data provider http://aviationweather.gov/metar/data/
 
METAR text: UHBB 290530Z 24002MPS 180V290 CAVOK M08/M20 Q1024 R36/810360 NOSIG RMK QFE750/1001
Conditions at: UHBB (BLAGOVESHCHENSK , RU) observed 0530 UTC 29 November 2021
Temperature: -8.0°C (18°F)
Dewpoint: -20.0°C (-4°F) [RH = 37%]
Pressure (altimeter): 30.24 inches Hg (1024.0 mb)
Winds: from the WSW (240 degrees) at 5 MPH (4 knots; 2.1 m/s)
Visibility: 6 or more miles (10+ km)
Ceiling: ceiling and visibility are OK
Clouds: unknown
Weather: no significant weather observed at this time

METAR text: UHBB 290500Z 10001MPS CAVOK M09/M21 Q1024 R36/810360 NOSIG RMK QFE750/1001
Conditions at: UHBB (BLAGOVESHCHENSK , RU) observed 0500 UTC 29 November 2021
Temperature: -9.0°C (16°F)
Dewpoint: -21.0°C (-6°F) [RH = 37%]
Pressure (altimeter): 30.24 inches Hg (1024.0 mb)
Winds: from the E (100 degrees) at 2 MPH (2 knots; 1.0 m/s)
Visibility: 6 or more miles (10+ km)
Ceiling: ceiling and visibility are OK
Clouds: unknown
Weather: no significant weather observed at this time

Forecast for: UHBB (BLAGOVESHCHENSK , RU)
Text: TAF UHBB 290440Z 2906/3006 33003G08MPS 9999 SCT030
Forecast period: 0600 to 0800 UTC 29 November 2021
Forecast type: FROM: standard forecast or significant change
Winds: from the NNW (330 degrees) at 7 MPH (6 knots; 3.1 m/s)
gusting to 18 MPH (16 knots; 8.2 m/s)
Visibility: 6 or more miles (10+ km)
Ceiling: at least 12,000 feet AGL
Clouds: scattered clouds at 3000 feet AGL
Weather: no significant weather forecast for this period
Text: BECMG 2908/2910 23003MPS
Forecast period: 0800 UTC 29 November 2021 to 0000 UTC 30 November 2021
Forecast type: BECOMING: Conditions expected to become as follows by 1000 UTC 29 November 2021
Winds: from the SW (230 degrees) at 7 MPH (6 knots; 3.1 m/s)
Visibility: 6 or more miles (10+ km)
Ceiling: at least 12,000 feet AGL
Clouds: scattered clouds at 3000 feet AGL
Weather: no significant weather forecast for this period
Text: BECMG 3000/3002 02003G08MPS
Forecast period: 0000 to 0600 UTC 30 November 2021
Forecast type: BECOMING: Conditions expected to become as follows by 0200 UTC 30 November 2021
Winds: from the NNE (20 degrees) at 7 MPH (6 knots; 3.1 m/s)
gusting to 18 MPH (16 knots; 8.2 m/s)
Visibility: 6 or more miles (10+ km)
Ceiling: at least 12,000 feet AGL
Clouds: scattered clouds at 3000 feet AGL
Weather: no significant weather forecast for this period